createdAt,value
2019-04-10T00:05:09.695Z,1.8
2019-04-10T00:10:38.219Z,1.7
2019-04-10T00:16:05.496Z,1.7
2019-04-10T00:21:31.749Z,1.7
2019-04-10T00:26:59.980Z,1.7
2019-04-10T00:32:27.871Z,1.7
2019-04-10T00:37:55.608Z,1.7
2019-04-10T00:43:22.822Z,1.7
2019-04-10T00:48:51.013Z,1.6
2019-04-10T00:54:18.304Z,1.5
2019-04-10T00:59:46.536Z,1.4
2019-04-10T01:05:15.208Z,1.3
2019-04-10T01:10:44.162Z,1.3
2019-04-10T01:16:11.417Z,1.3
2019-04-10T01:21:39.495Z,1.3
2019-04-10T01:27:07.732Z,1.2
2019-04-10T01:32:36.448Z,1.1
2019-04-10T01:38:05.631Z,1.2
2019-04-10T01:43:30.896Z,1.2
2019-04-10T01:48:57.620Z,1.1
2019-04-10T01:54:24.901Z,1.1
2019-04-10T01:59:52.946Z,1.1
2019-04-10T02:05:21.308Z,1.1
2019-04-10T02:10:50.146Z,1
2019-04-10T02:16:16.749Z,0.9
2019-04-10T02:21:44.238Z,0.6
2019-04-10T02:27:12.109Z,0.4
2019-04-10T02:32:43.142Z,0.2
2019-04-10T02:38:25.770Z,0.2
2019-04-10T02:43:35.895Z,0.2
2019-04-10T02:49:04.033Z,0.2
2019-04-10T02:54:29.717Z,0.3
2019-04-10T02:59:57.874Z,0.3
2019-04-10T03:05:27.056Z,0.2
2019-04-10T03:10:56.689Z,0.2
2019-04-10T03:16:21.638Z,0.1
2019-04-10T03:21:48.657Z,0.1
2019-04-10T03:27:16.541Z,0
2019-04-10T03:32:51.431Z,0
2019-04-10T03:38:12.011Z,0
2019-04-10T03:43:40.243Z,-0.1
2019-04-10T03:49:07.201Z,-0.1
2019-04-10T03:54:34.313Z,-0.2
2019-04-10T04:00:03.612Z,-0.1
2019-04-10T04:05:29.527Z,-0.1
2019-04-10T04:10:57.543Z,-0.1
2019-04-10T04:16:24.782Z,-0.1
2019-04-10T04:21:52.308Z,-0.2
2019-04-10T04:27:20.075Z,-0.2
2019-04-10T04:32:48.337Z,-0.2
2019-04-10T04:38:18.732Z,-0.2
2019-04-10T04:49:11.706Z,-0.2
2019-04-10T04:54:41.440Z,-0.2
2019-04-10T05:00:07.751Z,-0.2
2019-04-10T05:05:35.611Z,-0.2
2019-04-10T05:11:02.997Z,-0.2
2019-04-10T05:16:30.926Z,-0.2
2019-04-10T05:21:57.526Z,-0.2
2019-04-10T05:27:24.680Z,-0.1
2019-04-10T05:32:51.588Z,0
2019-04-10T05:38:22.773Z,0.1
2019-04-10T05:43:48.813Z,0.2
2019-04-10T05:49:17.192Z,0.3
2019-04-10T05:54:44.114Z,0.4
2019-04-10T06:00:12.133Z,0.5
2019-04-10T06:05:38.423Z,0.6
2019-04-10T06:11:06.742Z,0.7
2019-04-10T06:16:34.777Z,0.9
2019-04-10T06:22:03.206Z,1.1
2019-04-10T06:27:30.426Z,1.3
2019-04-10T06:32:59.880Z,1.5
2019-04-10T06:38:26.546Z,1.7
2019-04-10T06:43:54.922Z,1.9
2019-04-10T06:49:21.340Z,2.1
2019-04-10T06:54:49.000Z,2.2
2019-04-10T07:00:18.380Z,2.4
2019-04-10T07:05:57.813Z,2.5
2019-04-10T07:11:13.176Z,2.7
2019-04-10T07:16:40.204Z,2.8
2019-04-10T07:22:11.051Z,3
2019-04-10T07:27:36.853Z,3.1
2019-04-10T07:33:03.433Z,3.3
2019-04-10T07:38:31.427Z,3.5
2019-04-10T07:43:59.804Z,3.6
2019-04-10T07:49:30.805Z,3.8
2019-04-10T07:54:56.574Z,3.9
2019-04-10T08:00:25.029Z,4.1
2019-04-10T08:05:51.014Z,4.3
2019-04-10T08:11:18.005Z,4.3
2019-04-10T08:16:48.301Z,4.3
2019-04-10T08:22:12.969Z,4.3
2019-04-10T08:27:47.043Z,4.4
2019-04-10T08:33:08.025Z,4.6
2019-04-10T08:38:35.342Z,4.6
2019-04-10T08:44:04.388Z,4.5
2019-04-10T08:49:31.292Z,4.5
2019-04-10T08:54:59.871Z,4.6
2019-04-10T09:00:27.251Z,5
2019-04-10T09:05:55.233Z,5.3
2019-04-10T09:11:26.161Z,5.3
2019-04-10T09:16:51.241Z,5.1
2019-04-10T09:22:20.397Z,4.9
2019-04-10T09:27:49.591Z,4.8
2019-04-10T09:33:21.329Z,4.8
2019-04-10T09:38:44.066Z,4.8
2019-04-10T09:44:10.404Z,4.8
2019-04-10T09:49:43.485Z,4.7
2019-04-10T09:55:07.479Z,4.6
2019-04-10T10:00:34.721Z,4.7
2019-04-10T10:06:03.621Z,4.9
2019-04-10T10:11:31.772Z,5.1
2019-04-10T10:17:00.123Z,5.2
2019-04-10T10:22:27.382Z,5.4
2019-04-10T10:27:54.510Z,5.6
2019-04-10T10:33:21.937Z,5.9
2019-04-10T10:39:03.271Z,6.3
2019-04-10T10:49:48.828Z,6.5
2019-04-10T10:55:25.389Z,6.4
2019-04-10T11:00:45.212Z,6.3
2019-04-10T11:06:13.649Z,6.3
2019-04-10T11:11:42.291Z,6.4
2019-04-10T11:17:09.897Z,6.7
2019-04-10T11:28:05.956Z,7
2019-04-10T11:33:34.788Z,7
2019-04-10T11:39:11.800Z,6.7
2019-04-10T11:44:29.770Z,6.4
2019-04-10T11:49:59.347Z,6.2
2019-04-10T11:55:28.185Z,6.1
2019-04-10T12:00:55.974Z,6
2019-04-10T12:06:23.241Z,6
2019-04-10T12:11:53.198Z,5.9
2019-04-10T12:17:17.946Z,5.8
2019-04-10T12:22:46.303Z,5.7
2019-04-10T12:28:14.327Z,5.7
2019-04-10T12:33:42.409Z,5.7
2019-04-10T12:39:10.012Z,5.6
2019-04-10T12:44:38.633Z,5.6
2019-04-10T12:55:32.649Z,5.7
2019-04-10T13:01:00.666Z,5.8
2019-04-10T13:06:29.728Z,5.8
2019-04-10T13:17:26.784Z,5.8
2019-04-10T13:22:53.402Z,5.9
2019-04-10T13:28:25.260Z,5.9
2019-04-10T13:33:49.629Z,5.9
2019-04-10T13:39:18.872Z,5.9
2019-04-10T13:50:13.246Z,5.9
2019-04-10T13:55:42.200Z,5.9
2019-04-10T14:01:09.319Z,5.9
2019-04-10T14:06:36.096Z,5.9
2019-04-10T14:12:05.957Z,5.9
2019-04-10T14:17:31.235Z,5.8
2019-04-10T14:22:58.938Z,5.8
2019-04-10T14:28:27.051Z,5.7
2019-04-10T14:33:56.491Z,5.8
2019-04-10T14:39:22.875Z,5.8
2019-04-10T14:44:51.244Z,5.8
2019-04-10T14:50:21.972Z,5.7
2019-04-10T14:55:47.156Z,5.7
2019-04-10T15:01:20.302Z,5.8
2019-04-10T15:06:43.769Z,5.7
2019-04-10T15:12:10.827Z,5.7
2019-04-10T15:17:38.388Z,5.9
2019-04-10T15:23:07.852Z,6
2019-04-10T15:28:34.518Z,6.1
2019-04-10T15:34:02.085Z,6
2019-04-10T15:39:35.637Z,5.8
2019-04-10T15:44:58.694Z,5.7
2019-04-10T15:50:26.381Z,5.6
2019-04-10T15:56:01.424Z,5.7
2019-04-10T16:01:23.733Z,5.8
2019-04-10T16:06:53.700Z,6
2019-04-10T16:12:20.590Z,6.2
2019-04-10T16:17:48.200Z,6.3
2019-04-10T16:23:16.463Z,6.2
2019-04-10T16:28:45.146Z,6.1
2019-04-10T16:39:42.246Z,5.8
2019-04-10T16:45:08.628Z,5.7
2019-04-10T16:50:36.364Z,5.6
2019-04-10T16:56:05.249Z,5.5
2019-04-10T17:01:32.976Z,5.4
2019-04-10T17:12:29.604Z,5.3
2019-04-10T17:17:56.938Z,5.3
2019-04-10T17:23:24.775Z,5.2
2019-04-10T17:28:52.476Z,5.1
2019-04-10T17:34:19.309Z,5.1
2019-04-10T17:45:14.318Z,5
2019-04-10T17:50:43.673Z,4.9
2019-04-10T17:56:17.966Z,4.8
2019-04-10T18:01:41.000Z,4.7
2019-04-10T18:07:08.731Z,4.6
2019-04-10T18:12:36.257Z,4.5
2019-04-10T18:18:05.267Z,4.5
2019-04-10T18:23:39.927Z,4.4
2019-04-10T18:29:00.844Z,4.3
2019-04-10T18:34:35.468Z,4.3
2019-04-10T18:39:57.003Z,4.2
2019-04-10T18:45:23.852Z,4.2
2019-04-10T18:50:52.199Z,4.1
2019-04-10T18:56:19.290Z,4
2019-04-10T19:01:47.704Z,3.9
2019-04-10T19:07:17.392Z,3.8
2019-04-10T19:12:45.255Z,3.7
2019-04-10T19:18:13.326Z,3.6
2019-04-10T19:23:41.701Z,3.5
2019-04-10T19:29:09.527Z,3.4
2019-04-10T19:34:37.754Z,3.3
2019-04-10T19:40:04.978Z,3.3
2019-04-10T19:45:32.129Z,3.2
2019-04-10T19:50:59.638Z,3.2
2019-04-10T19:56:28.578Z,3.1
2019-04-10T20:01:56.021Z,3.1
2019-04-10T20:07:23.196Z,3
2019-04-10T20:12:52.970Z,3
2019-04-10T20:18:18.845Z,2.9
2019-04-10T20:23:48.043Z,2.9
2019-04-10T20:29:13.610Z,2.8
2019-04-10T20:34:40.930Z,2.8
2019-04-10T20:40:11.770Z,2.8
2019-04-10T20:45:36.480Z,2.7
2019-04-10T20:51:04.084Z,2.7
2019-04-10T20:56:30.636Z,2.6
2019-04-10T21:01:59.820Z,2.7
2019-04-10T21:07:27.656Z,2.7
2019-04-10T21:12:55.306Z,2.6
2019-04-10T21:18:23.727Z,2.6
2019-04-10T21:23:52.138Z,2.5
2019-04-10T21:29:23.304Z,2.5
2019-04-10T21:34:48.546Z,2.5
2019-04-10T21:40:16.805Z,2.5
2019-04-10T21:45:45.564Z,2.5
2019-04-10T21:51:13.365Z,2.5
2019-04-10T21:56:41.027Z,2.4
2019-04-10T22:02:09.112Z,2.4
2019-04-10T22:07:36.502Z,2.3
2019-04-10T22:13:03.815Z,2.3
2019-04-10T22:18:32.022Z,2.3
2019-04-10T22:24:00.938Z,2.2
2019-04-10T22:29:34.912Z,2.2
2019-04-10T22:34:56.910Z,2.2
2019-04-10T22:45:51.505Z,2.1
2019-04-10T22:51:22.357Z,2.1
2019-04-10T22:56:47.746Z,2
2019-04-10T23:02:15.015Z,2
2019-04-10T23:07:42.994Z,2
2019-04-10T23:13:10.334Z,2
2019-04-10T23:18:37.233Z,2
2019-04-10T23:24:05.478Z,2
2019-04-10T23:29:32.602Z,2
2019-04-10T23:35:03.202Z,2
2019-04-10T23:40:27.155Z,2
2019-04-10T23:45:53.675Z,2
2019-04-10T23:56:56.695Z,2
